createdAt,value
2023-05-07T00:00:01.925Z,11.26
2023-05-07T00:01:33.388Z,11.85
2023-05-07T00:03:05.021Z,12.49
2023-05-07T00:04:37.001Z,10.61
2023-05-07T00:06:09.928Z,10.46
2023-05-07T00:07:41.670Z,10.56
2023-05-07T00:09:13.746Z,11.78
2023-05-07T00:10:45.513Z,11.54
2023-05-07T00:12:17.846Z,10.04
2023-05-07T00:13:49.937Z,10.71
2023-05-07T00:15:22.792Z,10.18
2023-05-07T00:16:54.754Z,12.92
2023-05-07T00:18:26.395Z,12.04
2023-05-07T00:19:58.197Z,10.18
2023-05-07T00:21:29.527Z,11.15
2023-05-07T00:23:00.939Z,10.05
2023-05-07T00:24:32.435Z,11.43
2023-05-07T00:26:03.742Z,11.04
2023-05-07T00:27:35.533Z,11.86
2023-05-07T00:29:06.998Z,12.04
2023-05-07T00:30:43.604Z,11.85
2023-05-07T00:32:15.161Z,10.39
2023-05-07T00:33:46.853Z,11.73
2023-05-07T00:35:18.265Z,10.64
2023-05-07T00:36:49.611Z,11.75
2023-05-07T00:38:21.016Z,12.08
2023-05-07T00:39:52.325Z,11.44
2023-05-07T00:41:23.761Z,11.51
2023-05-07T00:42:55.066Z,10.97
2023-05-07T00:44:26.492Z,10.87
2023-05-07T00:45:57.833Z,12.16
2023-05-07T00:47:29.355Z,11.16
2023-05-07T00:49:00.748Z,11.85
2023-05-07T00:50:32.149Z,9.87
2023-05-07T00:52:03.523Z,9.17
2023-05-07T00:53:34.885Z,11.50
2023-05-07T00:55:06.167Z,10.17
2023-05-07T00:56:37.519Z,10.44
2023-05-07T00:58:09.063Z,11.64
2023-05-07T00:59:40.428Z,12.88
2023-05-07T01:01:11.748Z,10.86
2023-05-07T01:02:43.413Z,10.80
2023-05-07T01:04:15.271Z,10.25
2023-05-07T01:05:47.784Z,10.40
2023-05-07T01:07:19.732Z,10.22
2023-05-07T01:08:51.270Z,11.13
2023-05-07T01:10:22.591Z,11.80
2023-05-07T01:11:53.997Z,10.92
2023-05-07T01:13:25.341Z,11.45
2023-05-07T01:14:56.746Z,12.91
2023-05-07T01:16:28.449Z,11.34
2023-05-07T01:18:00.019Z,13.21
2023-05-07T01:19:31.593Z,11.20
2023-05-07T01:21:02.917Z,12.32
2023-05-07T01:22:34.343Z,11.14
2023-05-07T01:24:05.715Z,13.34
2023-05-07T01:25:37.035Z,11.76
2023-05-07T01:27:08.327Z,11.43
2023-05-07T01:28:40.429Z,11.68
2023-05-07T01:30:12.528Z,12.48
2023-05-07T01:31:44.377Z,11.18
2023-05-07T01:33:31.897Z,13.70
2023-05-07T01:35:03.237Z,12.16
2023-05-07T01:36:34.568Z,11.77
2023-05-07T01:38:05.873Z,15.76
2023-05-07T01:39:37.290Z,11.57
2023-05-07T01:41:08.700Z,12.23
2023-05-07T01:42:40.064Z,13.75
2023-05-07T01:44:11.437Z,12.56
2023-05-07T01:45:42.890Z,11.04
2023-05-07T01:47:19.315Z,11.42
2023-05-07T01:48:50.705Z,12.81
2023-05-07T01:50:22.124Z,13.20
2023-05-07T01:51:53.451Z,9.81
2023-05-07T01:53:24.777Z,10.65
2023-05-07T01:54:56.206Z,11.48
2023-05-07T01:56:27.637Z,11.33
2023-05-07T01:57:59.096Z,11.93
2023-05-07T01:59:35.624Z,13.87
2023-05-07T02:01:07.038Z,10.70
2023-05-07T02:03:07.999Z,10.26
2023-05-07T02:04:39.619Z,11.68
2023-05-07T02:06:16.677Z,11.45
2023-05-07T02:07:48.612Z,10.98
2023-05-07T02:09:20.738Z,11.80
2023-05-07T02:11:19.831Z,12.53
2023-05-07T02:12:51.517Z,13.64
2023-05-07T02:14:22.853Z,12.49
2023-05-07T02:16:29.641Z,14.18
2023-05-07T02:18:01.923Z,13.14
2023-05-07T02:19:38.919Z,10.65
2023-05-07T02:21:10.643Z,11.69
2023-05-07T02:22:42.463Z,11.85
2023-05-07T02:24:14.165Z,11.48
2023-05-07T02:25:45.799Z,11.82
2023-05-07T02:27:17.452Z,11.66
2023-05-07T02:28:49.106Z,13.08
2023-05-07T02:30:20.807Z,10.56
2023-05-07T02:31:52.155Z,10.92
2023-05-07T02:33:23.544Z,11.65
2023-05-07T02:34:56.098Z,11.05
2023-05-07T02:36:27.559Z,11.45
2023-05-07T02:37:59.170Z,10.64
2023-05-07T02:39:30.492Z,11.08
2023-05-07T02:41:01.891Z,13.17
2023-05-07T02:42:33.202Z,12.64
2023-05-07T02:44:04.508Z,11.67
2023-05-07T02:45:35.861Z,12.51
2023-05-07T02:47:07.341Z,11.99
2023-05-07T02:48:38.675Z,11.15
2023-05-07T02:50:10.161Z,11.26
2023-05-07T02:51:41.701Z,11.00
2023-05-07T02:53:13.080Z,12.31
2023-05-07T02:54:44.456Z,12.18
2023-05-07T02:56:15.845Z,11.93
2023-05-07T02:57:47.173Z,12.50
2023-05-07T02:59:18.575Z,12.12
2023-05-07T03:00:50.263Z,12.87
2023-05-07T03:02:21.676Z,13.07
2023-05-07T03:03:53.095Z,12.37
2023-05-07T03:05:24.544Z,12.82
2023-05-07T03:06:55.923Z,13.46
2023-05-07T03:08:27.489Z,13.04
2023-05-07T03:09:58.806Z,16.46
2023-05-07T03:11:30.184Z,16.30
2023-05-07T03:13:01.841Z,15.90
2023-05-07T03:14:33.303Z,15.19
2023-05-07T03:16:04.689Z,13.41
2023-05-07T03:17:36.345Z,14.65
2023-05-07T03:19:08.030Z,13.61
2023-05-07T03:20:40.249Z,15.30
2023-05-07T03:22:11.573Z,18.61
2023-05-07T03:23:42.889Z,17.65
2023-05-07T03:25:14.329Z,17.46
2023-05-07T03:26:45.770Z,16.58
2023-05-07T03:28:17.247Z,17.09
2023-05-07T03:29:48.642Z,15.07
2023-05-07T03:31:20.230Z,17.20
2023-05-07T03:32:51.657Z,19.48
2023-05-07T03:34:23.413Z,18.15
2023-05-07T03:35:54.950Z,18.31
2023-05-07T03:37:26.288Z,16.25
2023-05-07T03:38:57.872Z,16.25
2023-05-07T03:40:29.835Z,17.31
2023-05-07T03:42:01.565Z,17.72
2023-05-07T03:43:32.969Z,15.85
2023-05-07T03:45:04.297Z,16.88
2023-05-07T03:46:35.964Z,16.81
2023-05-07T03:48:07.529Z,15.78
2023-05-07T03:49:39.004Z,16.70
2023-05-07T03:51:10.463Z,16.18
2023-05-07T03:52:41.829Z,15.84
2023-05-07T03:54:13.282Z,15.79
2023-05-07T03:55:44.842Z,15.29
2023-05-07T03:57:16.272Z,15.95
2023-05-07T03:58:48.028Z,17.06
2023-05-07T04:00:19.605Z,13.95
2023-05-07T04:01:50.994Z,15.69
2023-05-07T04:03:22.517Z,15.32
2023-05-07T04:04:54.009Z,15.70
2023-05-07T04:06:25.456Z,17.08
2023-05-07T04:07:56.988Z,15.89
2023-05-07T04:09:28.340Z,14.76
2023-05-07T04:11:01.116Z,15.37
2023-05-07T04:12:32.875Z,16.98
2023-05-07T04:14:04.221Z,14.56
2023-05-07T04:15:35.544Z,14.15
2023-05-07T04:17:06.830Z,16.12
2023-05-07T04:18:38.164Z,14.36
2023-05-07T04:20:10.032Z,16.71
2023-05-07T04:21:41.663Z,15.78
2023-05-07T04:23:13.127Z,15.63
2023-05-07T04:24:44.471Z,15.26
2023-05-07T04:26:16.056Z,14.71
2023-05-07T04:27:47.417Z,14.27
2023-05-07T04:29:18.794Z,12.90
2023-05-07T04:30:50.186Z,16.56
2023-05-07T04:32:21.805Z,14.28
2023-05-07T04:33:53.185Z,15.36
2023-05-07T04:35:24.694Z,15.64
2023-05-07T04:36:56.080Z,15.09
2023-05-07T04:38:27.445Z,14.32
2023-05-07T04:39:58.849Z,14.72
2023-05-07T04:41:30.285Z,14.30
2023-05-07T04:43:01.841Z,14.31
2023-05-07T04:44:33.166Z,14.37
2023-05-07T04:46:04.506Z,14.51
2023-05-07T04:47:35.928Z,13.82
2023-05-07T04:49:07.265Z,13.10
2023-05-07T04:50:38.579Z,13.42
2023-05-07T04:52:09.951Z,12.74
2023-05-07T04:53:41.373Z,14.56
2023-05-07T04:55:12.637Z,15.26
2023-05-07T04:56:43.991Z,15.05
2023-05-07T04:58:15.299Z,12.32
2023-05-07T04:59:46.631Z,13.32
2023-05-07T05:01:17.966Z,13.16
2023-05-07T05:02:49.532Z,12.95
2023-05-07T05:04:21.446Z,14.92
2023-05-07T05:05:52.961Z,12.63
2023-05-07T05:07:24.459Z,11.76
2023-05-07T05:08:55.977Z,13.72
2023-05-07T05:10:27.578Z,12.13
2023-05-07T05:11:58.916Z,13.93
2023-05-07T05:13:30.359Z,13.34
2023-05-07T05:15:01.643Z,12.76
2023-05-07T05:16:33.155Z,13.20
2023-05-07T05:18:04.736Z,13.50
2023-05-07T05:19:36.450Z,11.93
2023-05-07T05:21:07.757Z,11.93
2023-05-07T05:22:39.098Z,12.34
2023-05-07T05:24:10.497Z,11.54
2023-05-07T05:25:41.983Z,13.00
2023-05-07T05:27:18.483Z,11.95
2023-05-07T05:28:49.795Z,12.44
2023-05-07T05:30:23.108Z,11.91
2023-05-07T05:31:54.793Z,12.14
2023-05-07T05:33:26.496Z,11.24
2023-05-07T05:34:57.953Z,12.21
2023-05-07T05:36:29.443Z,12.30
2023-05-07T05:38:00.788Z,12.36
2023-05-07T05:39:32.352Z,9.61
2023-05-07T05:41:03.727Z,10.79
2023-05-07T05:42:35.173Z,10.28
2023-05-07T05:44:06.569Z,9.15
2023-05-07T05:45:38.027Z,8.94
2023-05-07T05:47:09.392Z,8.80
2023-05-07T05:48:40.805Z,9.76
2023-05-07T05:50:12.369Z,8.30
2023-05-07T05:51:48.998Z,8.98
2023-05-07T05:53:20.335Z,8.96
2023-05-07T05:54:51.996Z,9.33
2023-05-07T05:56:23.479Z,8.16
2023-05-07T05:57:55.045Z,9.00
2023-05-07T05:59:26.487Z,8.54
2023-05-07T06:00:57.949Z,8.95
2023-05-07T06:02:29.365Z,7.87
2023-05-07T06:04:00.817Z,8.42
2023-05-07T06:05:32.155Z,9.96
2023-05-07T06:07:03.578Z,9.69
2023-05-07T06:08:55.248Z,8.49
2023-05-07T06:10:26.842Z,8.33
2023-05-07T06:12:00.566Z,6.80
2023-05-07T06:13:42.432Z,7.50
2023-05-07T06:15:13.765Z,8.61
2023-05-07T06:16:45.321Z,8.12
2023-05-07T06:18:16.847Z,7.49
2023-05-07T06:19:48.485Z,6.97
2023-05-07T06:21:19.864Z,6.46
2023-05-07T06:22:51.384Z,7.44
2023-05-07T06:24:22.778Z,7.70
2023-05-07T06:25:54.456Z,8.06
2023-05-07T06:27:25.929Z,7.12
2023-05-07T06:28:57.422Z,7.79
2023-05-07T06:30:28.842Z,5.97
2023-05-07T06:32:06.942Z,7.55
2023-05-07T06:33:48.641Z,6.20
2023-05-07T06:35:20.086Z,7.16
2023-05-07T06:36:51.617Z,6.33
2023-05-07T06:38:22.948Z,6.91
2023-05-07T06:39:54.277Z,6.93
2023-05-07T06:41:25.667Z,6.65
2023-05-07T06:42:57.186Z,6.22
2023-05-07T06:44:28.567Z,6.81
2023-05-07T06:45:59.940Z,6.15
2023-05-07T06:47:31.400Z,5.82
2023-05-07T06:49:02.819Z,5.18
2023-05-07T06:50:34.356Z,6.76
2023-05-07T06:52:05.942Z,6.50
2023-05-07T06:53:37.444Z,7.53
2023-05-07T06:55:09.172Z,6.37
2023-05-07T06:56:40.540Z,5.67
2023-05-07T06:58:11.954Z,6.22
2023-05-07T06:59:43.545Z,5.29
2023-05-07T07:01:20.130Z,4.95
2023-05-07T07:02:51.665Z,6.51
2023-05-07T07:04:28.374Z,6.41
2023-05-07T07:06:00.157Z,5.93
2023-05-07T07:07:31.751Z,6.18
2023-05-07T07:09:03.124Z,6.65
2023-05-07T07:10:34.510Z,5.07
2023-05-07T07:12:06.290Z,6.31
2023-05-07T07:13:42.834Z,5.38
2023-05-07T07:15:14.285Z,6.08
2023-05-07T07:16:45.897Z,5.47
2023-05-07T07:18:17.392Z,4.35
2023-05-07T07:19:48.860Z,5.02
2023-05-07T07:21:20.791Z,5.64
2023-05-07T07:22:52.276Z,4.15
2023-05-07T07:24:23.743Z,5.58
2023-05-07T07:25:55.269Z,4.87
2023-05-07T07:27:28.699Z,5.83
2023-05-07T07:29:00.157Z,4.94
2023-05-07T07:30:31.735Z,8.27
2023-05-07T07:32:03.769Z,6.06
2023-05-07T07:33:36.759Z,6.09
2023-05-07T07:35:08.399Z,5.90
2023-05-07T07:36:46.364Z,8.39
2023-05-07T07:38:18.698Z,6.86
2023-05-07T07:39:51.502Z,5.86
2023-05-07T07:41:22.915Z,6.66
2023-05-07T07:42:54.603Z,6.14
2023-05-07T07:44:26.418Z,6.56
2023-05-07T07:45:57.977Z,7.74
2023-05-07T07:47:29.523Z,5.94
2023-05-07T07:49:01.364Z,5.59
2023-05-07T07:50:44.668Z,5.23
2023-05-07T07:52:37.244Z,6.38
2023-05-07T07:54:08.838Z,5.77
2023-05-07T07:55:40.450Z,7.37
2023-05-07T07:57:12.118Z,5.41
2023-05-07T07:58:43.801Z,5.76
2023-05-07T08:00:15.205Z,5.94
2023-05-07T08:01:48.961Z,5.58
2023-05-07T08:03:30.693Z,6.86
2023-05-07T08:05:02.236Z,7.33
2023-05-07T08:06:33.945Z,5.70
2023-05-07T08:08:05.616Z,6.10
2023-05-07T08:09:37.196Z,6.02
2023-05-07T08:11:09.124Z,6.89
2023-05-07T08:12:40.952Z,7.05
2023-05-07T08:14:12.552Z,6.53
2023-05-07T08:15:44.076Z,7.78
2023-05-07T08:17:20.965Z,6.65
2023-05-07T08:18:53.137Z,6.42
2023-05-07T08:20:24.875Z,5.64
2023-05-07T08:21:56.839Z,6.24
2023-05-07T08:23:28.717Z,7.09
2023-05-07T08:25:00.343Z,6.62
2023-05-07T08:26:31.916Z,7.17
2023-05-07T08:28:03.666Z,5.86
2023-05-07T08:29:35.450Z,7.74
2023-05-07T08:31:07.292Z,7.15
2023-05-07T08:32:38.891Z,6.92
2023-05-07T08:34:15.801Z,7.30
2023-05-07T08:35:48.344Z,7.29
2023-05-07T08:37:20.042Z,7.30
2023-05-07T08:38:52.694Z,6.26
2023-05-07T08:40:24.273Z,6.30
2023-05-07T08:41:55.877Z,6.81
2023-05-07T08:43:27.521Z,7.10
2023-05-07T08:44:59.029Z,7.41
2023-05-07T08:46:30.597Z,5.99
2023-05-07T08:48:02.975Z,6.47
2023-05-07T08:49:34.656Z,7.14
2023-05-07T08:51:06.429Z,8.01
2023-05-07T08:52:38.264Z,7.32
2023-05-07T08:54:09.942Z,7.17
2023-05-07T08:55:41.573Z,8.47
2023-05-07T08:57:13.043Z,8.04
2023-05-07T08:58:44.783Z,8.03
2023-05-07T09:00:16.441Z,7.26
2023-05-07T09:01:48.216Z,7.69
2023-05-07T09:03:20.033Z,7.59
2023-05-07T09:04:51.730Z,8.16
2023-05-07T09:06:23.345Z,8.10
2023-05-07T09:08:00.065Z,8.85
2023-05-07T09:09:31.552Z,7.71
2023-05-07T09:11:03.125Z,8.79
2023-05-07T09:12:35.218Z,7.50
2023-05-07T09:14:07.589Z,9.42
2023-05-07T09:15:41.317Z,8.84
2023-05-07T09:17:18.023Z,8.87
2023-05-07T09:18:50.028Z,7.63
2023-05-07T09:20:21.551Z,8.65
2023-05-07T09:21:53.046Z,9.32
2023-05-07T09:23:24.685Z,8.20
2023-05-07T09:24:56.407Z,9.05
2023-05-07T09:26:28.088Z,8.06
2023-05-07T09:27:59.598Z,9.74
2023-05-07T09:29:31.280Z,10.74
2023-05-07T09:31:03.410Z,9.55
2023-05-07T09:32:34.984Z,9.99
2023-05-07T09:34:06.664Z,9.87
2023-05-07T09:35:38.071Z,11.01
2023-05-07T09:37:09.478Z,10.98
2023-05-07T09:38:41.020Z,13.70
2023-05-07T09:40:12.435Z,8.96
2023-05-07T09:41:43.850Z,10.50
2023-05-07T09:43:15.346Z,10.79
2023-05-07T09:44:46.763Z,10.19
2023-05-07T09:46:18.413Z,11.12
2023-05-07T09:47:50.185Z,11.52
2023-05-07T09:49:21.655Z,11.92
2023-05-07T09:50:53.043Z,9.50
2023-05-07T09:52:24.433Z,10.10
2023-05-07T09:53:55.891Z,11.88
2023-05-07T09:55:27.316Z,11.62
2023-05-07T09:56:58.909Z,10.34
2023-05-07T09:58:30.282Z,9.95
2023-05-07T10:00:01.684Z,10.61
2023-05-07T10:01:33.600Z,11.03
2023-05-07T10:03:05.554Z,10.30
2023-05-07T10:04:37.402Z,10.67
2023-05-07T10:06:08.774Z,10.15
2023-05-07T10:07:41.136Z,9.53
2023-05-07T10:09:12.598Z,11.77
2023-05-07T10:10:44.093Z,10.94
2023-05-07T10:12:15.733Z,10.54
2023-05-07T10:13:47.231Z,9.03
2023-05-07T10:15:33.801Z,10.61
2023-05-07T10:17:05.329Z,8.46
2023-05-07T10:18:36.890Z,8.63
2023-05-07T10:20:08.682Z,9.63
2023-05-07T10:21:40.272Z,8.36
2023-05-07T10:23:11.672Z,8.49
2023-05-07T10:24:43.147Z,9.18
2023-05-07T10:26:14.824Z,10.61
2023-05-07T10:27:50.303Z,6.28
2023-05-07T10:29:22.000Z,7.81
2023-05-07T10:30:53.715Z,7.13
2023-05-07T10:32:25.290Z,8.02
2023-05-07T10:34:00.647Z,7.97
2023-05-07T10:35:32.198Z,8.34
2023-05-07T10:37:03.601Z,7.35
2023-05-07T10:38:35.038Z,7.48
2023-05-07T10:40:06.644Z,9.01
2023-05-07T10:41:38.112Z,6.29
2023-05-07T10:43:11.124Z,6.62
2023-05-07T10:44:42.746Z,5.70
2023-05-07T10:46:14.243Z,6.44
2023-05-07T10:47:45.840Z,7.06
2023-05-07T10:49:17.867Z,7.46
2023-05-07T10:50:49.604Z,6.39
2023-05-07T10:52:21.471Z,4.79
2023-05-07T10:53:53.131Z,6.93
2023-05-07T10:55:24.573Z,5.43
2023-05-07T10:57:01.660Z,6.77
2023-05-07T10:58:33.469Z,5.60
2023-05-07T11:00:05.151Z,5.19
2023-05-07T11:01:36.797Z,6.87
2023-05-07T11:03:09.352Z,5.72
2023-05-07T11:04:41.464Z,6.15
2023-05-07T11:06:15.403Z,6.86
2023-05-07T11:07:46.959Z,5.47
2023-05-07T11:09:18.400Z,6.82
2023-05-07T11:10:49.836Z,6.57
2023-05-07T11:12:22.419Z,6.11
2023-05-07T11:13:54.308Z,9.56
2023-05-07T11:15:26.013Z,6.14
2023-05-07T11:16:57.560Z,6.41
2023-05-07T11:18:29.174Z,6.50
2023-05-07T11:20:00.684Z,7.71
2023-05-07T11:21:32.288Z,7.73
2023-05-07T11:23:03.702Z,10.89
2023-05-07T11:24:35.677Z,8.63
2023-05-07T11:26:07.230Z,8.72
2023-05-07T11:27:38.775Z,7.40
2023-05-07T11:29:10.727Z,8.10
2023-05-07T11:30:42.299Z,9.69
2023-05-07T11:32:13.846Z,10.25
2023-05-07T11:33:45.380Z,9.58
2023-05-07T11:35:17.199Z,9.55
2023-05-07T11:36:48.798Z,9.86
2023-05-07T11:38:20.361Z,9.86
2023-05-07T11:39:51.943Z,10.06
2023-05-07T11:41:23.660Z,8.66
2023-05-07T11:42:55.317Z,8.71
2023-05-07T11:44:26.753Z,10.44
2023-05-07T11:45:58.268Z,8.62
2023-05-07T11:47:30.092Z,8.74
2023-05-07T11:49:01.663Z,8.60
2023-05-07T11:50:33.844Z,11.62
2023-05-07T11:52:06.701Z,10.28
2023-05-07T11:53:38.619Z,9.70
2023-05-07T11:55:10.293Z,10.00
2023-05-07T11:56:42.022Z,10.02
2023-05-07T11:58:13.585Z,10.66
2023-05-07T11:59:46.938Z,10.56
2023-05-07T12:01:18.393Z,9.41
2023-05-07T12:02:49.902Z,10.45
2023-05-07T12:04:21.987Z,8.88
2023-05-07T12:05:53.722Z,8.67
2023-05-07T12:07:45.237Z,9.15
2023-05-07T12:09:17.251Z,7.74
2023-05-07T12:10:49.369Z,6.85
2023-05-07T12:12:20.920Z,9.02
2023-05-07T12:13:52.531Z,7.72
2023-05-07T12:15:24.610Z,6.61
2023-05-07T12:16:56.357Z,6.87
2023-05-07T12:18:28.091Z,7.48
2023-05-07T12:19:59.604Z,5.99
2023-05-07T12:21:32.063Z,6.65
2023-05-07T12:23:03.517Z,6.89
2023-05-07T12:24:35.551Z,8.21
2023-05-07T12:26:07.810Z,6.61
2023-05-07T12:27:40.238Z,6.48
2023-05-07T12:29:11.835Z,7.41
2023-05-07T12:30:43.588Z,7.54
2023-05-07T12:32:15.106Z,8.61
2023-05-07T12:33:46.669Z,10.32
2023-05-07T12:35:18.443Z,8.82
2023-05-07T12:36:50.161Z,6.62
2023-05-07T12:38:21.618Z,8.33
2023-05-07T12:39:53.075Z,8.37
2023-05-07T12:41:24.718Z,8.94
2023-05-07T12:42:56.161Z,10.99
2023-05-07T12:44:27.687Z,8.96
2023-05-07T12:45:59.288Z,10.13
2023-05-07T12:47:30.873Z,9.00
2023-05-07T12:49:02.474Z,7.87
2023-05-07T12:50:35.181Z,8.22
2023-05-07T12:52:07.100Z,7.32
2023-05-07T12:55:42.185Z,7.54
2023-05-07T12:57:23.887Z,5.88
2023-05-07T12:59:11.058Z,6.90
2023-05-07T13:01:04.177Z,6.18
2023-05-07T13:02:35.826Z,7.35
2023-05-07T13:04:07.689Z,7.52
2023-05-07T13:05:39.387Z,7.62
2023-05-07T13:07:10.898Z,6.90
2023-05-07T13:08:42.822Z,7.37
2023-05-07T13:10:14.721Z,7.50
2023-05-07T13:11:46.319Z,7.03
2023-05-07T13:13:18.006Z,6.14
2023-05-07T13:14:49.775Z,6.05
2023-05-07T13:16:22.268Z,7.08
2023-05-07T13:17:54.223Z,7.02
2023-05-07T13:19:25.765Z,5.63
2023-05-07T13:20:57.206Z,7.16
2023-05-07T13:22:28.797Z,8.00
2023-05-07T13:24:00.337Z,6.41
2023-05-07T13:25:31.886Z,5.44
2023-05-07T13:27:03.286Z,7.83
2023-05-07T13:28:34.746Z,6.83
2023-05-07T13:30:06.189Z,8.00
2023-05-07T13:31:37.797Z,6.96
2023-05-07T13:33:09.739Z,8.28
2023-05-07T13:34:41.156Z,8.23
2023-05-07T13:36:12.665Z,8.89
2023-05-07T13:37:44.108Z,6.12
2023-05-07T13:39:15.555Z,5.85
2023-05-07T13:40:47.152Z,6.44
2023-05-07T13:42:18.580Z,7.90
2023-05-07T13:43:50.119Z,7.88
2023-05-07T13:45:22.181Z,7.27
2023-05-07T13:46:53.683Z,6.36
2023-05-07T13:48:25.180Z,7.99
2023-05-07T13:49:58.350Z,6.61
2023-05-07T13:51:29.943Z,7.49
2023-05-07T13:53:01.395Z,6.46
2023-05-07T13:54:33.028Z,6.48
2023-05-07T13:56:04.572Z,7.17
2023-05-07T13:57:36.231Z,7.02
2023-05-07T13:59:07.606Z,7.66
2023-05-07T14:00:44.125Z,6.59
2023-05-07T14:02:15.653Z,7.06
2023-05-07T14:03:47.234Z,7.58
2023-05-07T14:05:18.837Z,7.53
2023-05-07T14:06:50.388Z,7.79
2023-05-07T14:08:21.828Z,7.81
2023-05-07T14:09:53.284Z,8.01
2023-05-07T14:11:24.686Z,7.44
2023-05-07T14:12:56.331Z,7.38
2023-05-07T14:14:27.789Z,7.37
2023-05-07T14:15:59.232Z,7.18
2023-05-07T14:17:30.813Z,8.40
2023-05-07T14:19:02.697Z,9.28
2023-05-07T14:20:34.132Z,10.28
2023-05-07T14:22:05.509Z,8.92
2023-05-07T14:23:36.951Z,9.60
2023-05-07T14:25:08.446Z,8.19
2023-05-07T14:26:39.983Z,8.92
2023-05-07T14:28:11.501Z,9.23
2023-05-07T14:29:42.964Z,10.24
2023-05-07T14:31:14.908Z,10.03
2023-05-07T14:32:46.713Z,9.71
2023-05-07T14:34:18.200Z,8.83
2023-05-07T14:35:50.732Z,10.57
2023-05-07T14:37:22.363Z,10.12
2023-05-07T14:38:53.821Z,9.68
2023-05-07T14:40:25.300Z,10.02
2023-05-07T14:41:57.049Z,10.00
2023-05-07T14:43:28.471Z,7.99
2023-05-07T14:45:00.005Z,9.94
2023-05-07T14:46:31.478Z,8.84
2023-05-07T14:48:02.972Z,9.84
2023-05-07T14:49:34.448Z,8.38
2023-05-07T14:51:05.829Z,10.78
2023-05-07T14:52:37.490Z,9.72
2023-05-07T14:54:08.963Z,9.31
2023-05-07T14:55:40.546Z,9.04
2023-05-07T14:57:12.094Z,9.94
2023-05-07T14:58:43.606Z,9.19
2023-05-07T15:00:15.105Z,10.79
2023-05-07T15:01:48.462Z,8.88
2023-05-07T15:03:20.011Z,8.20
2023-05-07T15:04:51.636Z,7.99
2023-05-07T15:06:23.066Z,8.17
2023-05-07T15:07:57.517Z,8.25
2023-05-07T15:09:29.257Z,7.88
2023-05-07T15:11:01.319Z,7.00
2023-05-07T15:12:32.804Z,6.81
2023-05-07T15:14:04.191Z,7.28
2023-05-07T15:15:35.878Z,6.34
2023-05-07T15:17:08.635Z,6.99
2023-05-07T15:18:40.182Z,5.30
2023-05-07T15:20:11.792Z,7.40
2023-05-07T15:21:43.226Z,6.94
2023-05-07T15:23:14.653Z,5.25
2023-05-07T15:24:46.071Z,5.64
2023-05-07T15:26:17.575Z,5.35
2023-05-07T15:27:49.001Z,4.83
2023-05-07T15:29:21.504Z,5.20
2023-05-07T15:30:55.053Z,5.51
2023-05-07T15:32:27.707Z,4.10
2023-05-07T15:33:59.388Z,4.26
2023-05-07T15:35:31.576Z,4.92
2023-05-07T15:37:03.893Z,4.72
2023-05-07T15:38:35.406Z,4.89
2023-05-07T15:40:06.810Z,4.69
2023-05-07T15:41:38.512Z,6.13
2023-05-07T15:43:09.956Z,5.32
2023-05-07T15:44:41.858Z,6.66
2023-05-07T15:46:17.721Z,6.77
2023-05-07T15:47:49.369Z,4.88
2023-05-07T15:49:20.998Z,5.56
2023-05-07T15:50:52.941Z,4.14
2023-05-07T15:52:24.538Z,5.50
2023-05-07T15:53:56.025Z,5.35
2023-05-07T15:55:27.439Z,5.23
2023-05-07T15:56:58.837Z,5.76
2023-05-07T15:58:30.256Z,4.77
2023-05-07T16:00:01.865Z,4.78
2023-05-07T16:01:33.352Z,5.67
2023-05-07T16:03:05.013Z,6.50
2023-05-07T16:04:36.648Z,5.25
2023-05-07T16:06:08.176Z,6.96
2023-05-07T16:07:39.957Z,5.88
2023-05-07T16:09:26.341Z,5.79
2023-05-07T16:10:58.041Z,5.01
2023-05-07T16:12:29.646Z,6.32
2023-05-07T16:14:01.112Z,5.14
2023-05-07T16:15:32.642Z,5.11
2023-05-07T16:17:04.102Z,6.41
2023-05-07T16:18:45.644Z,5.41
2023-05-07T16:20:18.142Z,5.91
2023-05-07T16:21:49.602Z,5.47
2023-05-07T16:23:21.089Z,4.96
2023-05-07T16:24:52.691Z,3.83
2023-05-07T16:26:24.087Z,4.09
2023-05-07T16:27:55.590Z,5.25
2023-05-07T16:29:27.154Z,5.77
2023-05-07T16:30:58.640Z,4.49
2023-05-07T16:32:30.687Z,4.85
2023-05-07T16:34:03.489Z,4.46
2023-05-07T16:35:35.022Z,6.99
2023-05-07T16:37:06.550Z,5.78
2023-05-07T16:38:38.057Z,7.16
2023-05-07T16:40:09.451Z,6.40
2023-05-07T16:41:40.991Z,6.07
2023-05-07T16:43:12.384Z,6.05
2023-05-07T16:44:43.785Z,5.62
2023-05-07T16:46:15.282Z,6.00
2023-05-07T16:47:47.086Z,5.24
2023-05-07T16:49:18.617Z,6.03
2023-05-07T16:50:50.607Z,5.49
2023-05-07T16:52:23.209Z,4.90
2023-05-07T16:53:54.701Z,6.37
2023-05-07T16:55:26.259Z,5.41
2023-05-07T16:56:57.664Z,6.86
2023-05-07T16:58:29.235Z,4.96
2023-05-07T17:00:00.957Z,5.24
2023-05-07T17:01:32.570Z,5.24
2023-05-07T17:03:04.354Z,5.67
2023-05-07T17:04:35.917Z,5.36
2023-05-07T17:06:07.409Z,5.06
2023-05-07T17:07:39.320Z,6.71
2023-05-07T17:09:10.744Z,4.75
2023-05-07T17:10:42.242Z,5.03
2023-05-07T17:12:14.854Z,4.81
2023-05-07T17:13:46.591Z,4.56
2023-05-07T17:15:18.031Z,4.33
2023-05-07T17:16:49.712Z,6.35
2023-05-07T17:18:21.066Z,4.64
2023-05-07T17:19:52.661Z,3.90
2023-05-07T17:21:24.057Z,5.47
2023-05-07T17:22:55.564Z,5.94
2023-05-07T17:24:27.307Z,4.31
2023-05-07T17:25:58.840Z,3.91
2023-05-07T17:27:30.489Z,4.23
2023-05-07T17:29:01.932Z,4.33
2023-05-07T17:30:33.730Z,4.29
2023-05-07T17:32:06.358Z,3.90
2023-05-07T17:33:39.738Z,4.27
2023-05-07T17:35:11.297Z,5.69
2023-05-07T17:36:42.889Z,3.73
2023-05-07T17:38:14.254Z,4.38
2023-05-07T17:39:45.656Z,3.69
2023-05-07T17:41:17.029Z,4.81
2023-05-07T17:42:48.537Z,4.63
2023-05-07T17:44:20.272Z,3.69
2023-05-07T17:45:51.872Z,4.27
2023-05-07T17:47:23.358Z,4.24
2023-05-07T17:48:54.846Z,4.73
2023-05-07T17:50:26.205Z,4.49
2023-05-07T17:52:02.600Z,3.21
2023-05-07T17:53:34.088Z,5.32
2023-05-07T17:55:05.464Z,5.04
2023-05-07T17:56:46.871Z,4.41
2023-05-07T17:58:23.451Z,4.73
2023-05-07T17:59:54.930Z,4.86
2023-05-07T18:01:31.411Z,5.14
2023-05-07T18:03:13.344Z,4.12
2023-05-07T18:04:45.014Z,5.37
2023-05-07T18:06:16.396Z,4.56
2023-05-07T18:07:47.792Z,5.71
2023-05-07T18:09:19.239Z,4.50
2023-05-07T18:10:50.614Z,5.17
2023-05-07T18:12:22.083Z,4.21
2023-05-07T18:13:58.449Z,6.37
2023-05-07T18:15:30.133Z,5.61
2023-05-07T18:17:11.839Z,5.45
2023-05-07T18:18:43.273Z,6.05
2023-05-07T18:20:14.781Z,5.83
2023-05-07T18:21:46.272Z,4.66
2023-05-07T18:23:17.694Z,4.53
2023-05-07T18:24:49.175Z,4.38
2023-05-07T18:26:20.639Z,4.83
2023-05-07T18:27:52.054Z,4.27
2023-05-07T18:29:23.663Z,5.63
2023-05-07T18:31:53.070Z,3.10
2023-05-07T18:33:24.446Z,5.18
2023-05-07T18:35:01.031Z,6.33
2023-05-07T18:36:37.451Z,5.56
2023-05-07T18:38:08.915Z,5.27
2023-05-07T18:39:50.336Z,5.14
2023-05-07T18:41:21.791Z,5.76
2023-05-07T18:42:53.252Z,4.61
2023-05-07T18:44:24.839Z,5.56
2023-05-07T18:45:56.424Z,5.76
2023-05-07T18:47:41.646Z,4.80
2023-05-07T18:49:30.132Z,5.19
2023-05-07T18:51:01.853Z,5.33
2023-05-07T18:52:43.304Z,5.55
2023-05-07T18:54:18.448Z,5.72
2023-05-07T18:56:03.717Z,5.29
2023-05-07T18:57:35.337Z,5.77
2023-05-07T18:59:06.737Z,6.12
2023-05-07T19:00:38.146Z,7.82
2023-05-07T19:02:14.620Z,6.05
2023-05-07T19:03:45.975Z,7.41
2023-05-07T19:05:17.458Z,5.80
2023-05-07T19:07:08.796Z,5.89
2023-05-07T19:08:40.285Z,5.39
2023-05-07T19:10:11.797Z,6.41
2023-05-07T19:11:43.299Z,6.88
2023-05-07T19:13:14.793Z,6.88
2023-05-07T19:14:46.309Z,7.35
2023-05-07T19:16:33.353Z,6.01
2023-05-07T19:18:26.584Z,5.99
2023-05-07T19:19:58.530Z,7.10
2023-05-07T19:21:30.028Z,8.42
2023-05-07T19:23:01.513Z,7.83
2023-05-07T19:24:35.621Z,7.35
2023-05-07T19:26:07.002Z,7.73
2023-05-07T19:27:48.548Z,8.71
2023-05-07T19:29:45.386Z,7.81
2023-05-07T19:31:17.116Z,7.06
2023-05-07T19:33:21.161Z,8.48
2023-05-07T19:34:52.781Z,8.86
2023-05-07T19:36:29.315Z,8.58
2023-05-07T19:38:00.673Z,8.06
2023-05-07T19:39:59.043Z,9.30
2023-05-07T19:41:35.414Z,8.65
2023-05-07T19:43:11.781Z,10.05
2023-05-07T19:44:43.146Z,10.96
2023-05-07T19:46:14.524Z,11.60
2023-05-07T19:47:46.050Z,11.60
2023-05-07T19:49:17.455Z,12.25
2023-05-07T19:50:48.806Z,14.25
2023-05-07T19:52:30.190Z,13.63
2023-05-07T19:54:02.195Z,13.38
2023-05-07T19:55:33.594Z,12.43
2023-05-07T19:57:15.503Z,12.10
2023-05-07T19:58:57.034Z,14.87
2023-05-07T20:00:28.567Z,13.37
2023-05-07T20:02:20.029Z,15.83
2023-05-07T20:03:51.559Z,13.72
2023-05-07T20:05:28.307Z,13.54
2023-05-07T20:07:29.709Z,12.62
2023-05-07T20:09:06.132Z,13.98
2023-05-07T20:10:37.617Z,14.10
2023-05-07T20:12:24.174Z,12.88
2023-05-07T20:14:30.481Z,12.98
2023-05-07T20:16:12.794Z,14.65
2023-05-07T20:17:44.340Z,15.27
2023-05-07T20:19:32.563Z,14.90
2023-05-07T20:21:27.347Z,13.69